Airfield :
LOGIN :

Register | Disclaimer

   EN    FR    IT 

 










Legend :    VFR   Marginal VFR   IFR   Intensive IFR   Very Intensive IFR
Visi :
Ceiling :
>= 8 km
>= 3000ft
5 to 8 km
1000 to 3000 ft
1500m to 5 km
500 to 1000 ft
800 to 1500m
200 to 500 ft
< 800m
< 200 ft
Symbols :   Thunderstorms  Fog  Heavy snow  Heavy precipitations  Wind > 20 kt
SIGMETs :     Misc.  Thunderstorms  Icing  Turbulence  Mountain Waves  Volcanic Ashes






- Airport Elevation : 348 ft
- IATA code : STN


EGSS - London Stansted

CURRENT METAR :
  • 090720Z AUTO 05005KT 020V090 9999 NCD 18/15 Q1030

EXPIRED METARs :
  • 090650Z AUTO 03006KT 9999 NCD 16/16 Q1030
  • 090620Z AUTO 04005KT 9999 SCT001 15/15 Q1030
  • 090550Z AUTO 03005KT 0600 R04/1400U FG BKN001 14/14 Q1030
  • 090520Z AUTO 04004KT 4300 BR SCT001 14/13 Q1029
  • 090450Z AUTO 04003KT 1400 R04/P1500N BR SCT001 13/13 Q1029

TAF AMD TAF EGSS
Valid from the 09 at 06:00 until the 10 at 12:00 UTC


090601Z 0906/1012 03004KT 0600 FG BKN001
BECMG 0906/0908 9999 NSW FEW008
BECMG 0915/0918 11010KT
BECMG 1000/1003 05003KT
BECMG 1001/1004 8000
BECMG 1004/1007 CAVOK
PROB30 1004/1007 0500 FG VV///
ATIS : +44 1279 669 325



MET'MAP, your aeronautical weather chart ! - Copyright ORBIFLY December 2007 - Disclaimer

ORBIFLY MET'MAP TEAM :

Programming & Development : Alexandra Zaïnal
Original concept : Baudouin d'Aumeries
Technical & hardware support : Manuel Goepfert
Assistance : Marc-Olivier Méhu




SOURCES & CREDITS :

   NOAA